Pagrindinis puslapis
METAR-TAF:

METAR-TAF

Oro uostai :

Terrace, Britų Kolumbija, Kanada

platuma: 54-28N, ilguma: 128-35W, Aukštis: 217 m

Dabartinis oras

Ataskaita buvo paskelbta 44 minutes, ne 09:00 UTC
Vėjas 3 kt nuo kintamojo kryptimis
Temperatūra 18°C
Drėgmė 83%
Slėgis 1018 hPa
Matomumas: 24.1 km
Išsisklaidę debesys ne aukštis 12000 ft

METAR: CYXT 310900Z VRB03KT 15SM SCT120 18/15 A3006 RMK AC4 SLP180 DENSITY ALT 1100FT

Laikas: 02:44 (09:44 UTC)

Prognozė

Ataskaita buvo paskelbta 3 valandos ir 6 minutes, ne 06:38 UTC
Prognozė galioja nuo 31 metu 07 UTC su 31 metu 19 UTC
Vėjas 3 kt nuo kintamojo kryptimis
Matomumas: 10 km
Mažai debesys ne aukštis 12000 ft

TAF: CYXT 310638Z 3107/3119 VRB03KT P6SM FEW120 RMK NXT FCST BY 311300Z

Orai ataskaitas ir orų prognozės (METAR, TAF).

turimą stotys yra geltonos ir raudonos taškus žemėlapyje.

Perkelti pele per norėdami pamatyti stoties vardą.

Tada spustelėkite, norėdami matyti oro stebėjimo ir prognozės.

Norėdami pakeisti žemėlapį: spustelėkite ant žalios mygtukų su juodo kryžiaus žemyn,; žalią mygtuką su brūkšneliu, jei norite nutolinti; arba žalių rodyklių gretimoms žemėlapius.


METAR-TAF: